Mahanoy City, Pennsylvania
Current Conditions -  °F | °C
As of 6:55 PM on Sunday 23 Nov 2014 (Local Time) from KHZL Reporting Station
Clear Clear  
Wind Chill: 46°   Ceiling: Unl
Heat Index: 46°   Visibility: 10mi
Dew Point: 27°   Wind: 3mph
Humidity: 46%   Direction: 140°SE
Pressure: 30.05"   Gusts: NA
Location:  40.81°N, 76.14°W
Report Text: KHZL 232355Z AUTO 14003KT 10SM CLR 08/M03 A3005 RMK AO2
Loading
Personal Weather Stations






























Interactive Weather Map New forecast layout! Learn more

10-Day Weather Forecast

Advertisements
Track Severe Weather on mobile